sensor_id;sensor_type;location;lat;lon;timestamp;temperature;humidity
20174;DHT22;10246;50.620;7.232;2024-02-04T00:00:00;11.40;21.10
20174;DHT22;10246;50.620;7.232;2024-02-04T00:02:28;11.30;22.00
20174;DHT22;10246;50.620;7.232;2024-02-04T00:04:55;11.30;22.70
20174;DHT22;10246;50.620;7.232;2024-02-04T00:07:21;11.30;23.00
20174;DHT22;10246;50.620;7.232;2024-02-04T00:09:48;11.30;23.80
20174;DHT22;10246;50.620;7.232;2024-02-04T00:12:15;11.20;24.60
20174;DHT22;10246;50.620;7.232;2024-02-04T00:14:41;11.20;25.20
20174;DHT22;10246;50.620;7.232;2024-02-04T00:17:08;11.10;26.00
20174;DHT22;10246;50.620;7.232;2024-02-04T00:19:36;11.10;26.20
20174;DHT22;10246;50.620;7.232;2024-02-04T00:22:03;11.10;26.20
20174;DHT22;10246;50.620;7.232;2024-02-04T00:24:30;11.10;26.20
20174;DHT22;10246;50.620;7.232;2024-02-04T00:26:57;11.00;26.90
20174;DHT22;10246;50.620;7.232;2024-02-04T00:29:23;11.00;27.40
20174;DHT22;10246;50.620;7.232;2024-02-04T00:31:50;11.10;26.20
20174;DHT22;10246;50.620;7.232;2024-02-04T00:34:17;11.10;26.10
20174;DHT22;10246;50.620;7.232;2024-02-04T00:36:45;11.10;26.20
20174;DHT22;10246;50.620;7.232;2024-02-04T00:39:12;11.10;26.40
20174;DHT22;10246;50.620;7.232;2024-02-04T00:41:38;11.00;27.00
20174;DHT22;10246;50.620;7.232;2024-02-04T00:44:05;11.00;27.30
20174;DHT22;10246;50.620;7.232;2024-02-04T00:46:32;11.00;27.50
20174;DHT22;10246;50.620;7.232;2024-02-04T00:48:58;11.10;27.70
20174;DHT22;10246;50.620;7.232;2024-02-04T00:51:25;11.00;27.90
20174;DHT22;10246;50.620;7.232;2024-02-04T00:53:53;11.00;27.80
20174;DHT22;10246;50.620;7.232;2024-02-04T00:56:20;11.00;28.00
20174;DHT22;10246;50.620;7.232;2024-02-04T00:58:47;11.00;28.10
20174;DHT22;10246;50.620;7.232;2024-02-04T01:01:13;11.00;28.30
20174;DHT22;10246;50.620;7.232;2024-02-04T01:03:40;11.00;28.40
20174;DHT22;10246;50.620;7.232;2024-02-04T01:06:07;11.00;28.10
20174;DHT22;10246;50.620;7.232;2024-02-04T01:08:33;11.00;28.60
20174;DHT22;10246;50.620;7.232;2024-02-04T01:11:04;10.90;28.90
20174;DHT22;10246;50.620;7.232;2024-02-04T01:13:31;10.90;29.00
20174;DHT22;10246;50.620;7.232;2024-02-04T01:15:58;10.90;29.00
20174;DHT22;10246;50.620;7.232;2024-02-04T01:18:25;10.90;29.20
20174;DHT22;10246;50.620;7.232;2024-02-04T01:20:51;10.90;28.90
20174;DHT22;10246;50.620;7.232;2024-02-04T01:23:18;11.00;29.00
20174;DHT22;10246;50.620;7.232;2024-02-04T01:25:45;10.90;29.20
20174;DHT22;10246;50.620;7.232;2024-02-04T01:28:13;10.90;29.10
20174;DHT22;10246;50.620;7.232;2024-02-04T01:30:40;11.00;29.30
20174;DHT22;10246;50.620;7.232;2024-02-04T01:33:07;10.90;29.20
20174;DHT22;10246;50.620;7.232;2024-02-04T01:35:33;10.90;29.40
20174;DHT22;10246;50.620;7.232;2024-02-04T01:38:00;10.90;29.30
20174;DHT22;10246;50.620;7.232;2024-02-04T01:40:27;10.90;29.50
20174;DHT22;10246;50.620;7.232;2024-02-04T01:42:54;10.90;29.80
20174;DHT22;10246;50.620;7.232;2024-02-04T01:45:22;10.90;29.30
20174;DHT22;10246;50.620;7.232;2024-02-04T01:47:50;10.90;29.70
20174;DHT22;10246;50.620;7.232;2024-02-04T01:50:18;10.90;29.40
20174;DHT22;10246;50.620;7.232;2024-02-04T01:52:45;10.90;29.40
20174;DHT22;10246;50.620;7.232;2024-02-04T01:55:12;11.00;29.10
20174;DHT22;10246;50.620;7.232;2024-02-04T01:57:40;11.00;29.20
20174;DHT22;10246;50.620;7.232;2024-02-04T02:00:08;10.90;29.10
20174;DHT22;10246;50.620;7.232;2024-02-04T02:02:39;10.90;28.70
20174;DHT22;10246;50.620;7.232;2024-02-04T02:05:06;10.90;28.90
20174;DHT22;10246;50.620;7.232;2024-02-04T02:07:34;10.90;29.30
20174;DHT22;10246;50.620;7.232;2024-02-04T02:10:00;10.90;29.10
20174;DHT22;10246;50.620;7.232;2024-02-04T02:12:30;11.00;28.70
20174;DHT22;10246;50.620;7.232;2024-02-04T02:15:04;11.00;28.50
20174;DHT22;10246;50.620;7.232;2024-02-04T02:17:41;11.00;28.00
20174;DHT22;10246;50.620;7.232;2024-02-04T02:20:19;11.00;28.00
20174;DHT22;10246;50.620;7.232;2024-02-04T02:22:49;11.00;27.60
20174;DHT22;10246;50.620;7.232;2024-02-04T02:25:19;11.00;27.20
20174;DHT22;10246;50.620;7.232;2024-02-04T02:27:47;11.10;27.00
20174;DHT22;10246;50.620;7.232;2024-02-04T02:30:14;11.10;27.20
20174;DHT22;10246;50.620;7.232;2024-02-04T02:32:42;11.10;26.20
20174;DHT22;10246;50.620;7.232;2024-02-04T02:35:09;11.10;26.60
20174;DHT22;10246;50.620;7.232;2024-02-04T02:37:41;11.10;27.10
20174;DHT22;10246;50.620;7.232;2024-02-04T02:40:14;11.00;27.90
20174;DHT22;10246;50.620;7.232;2024-02-04T02:42:46;11.00;28.30
20174;DHT22;10246;50.620;7.232;2024-02-04T02:45:13;11.00;28.30
20174;DHT22;10246;50.620;7.232;2024-02-04T02:47:41;11.00;27.90
20174;DHT22;10246;50.620;7.232;2024-02-04T02:50:09;11.00;27.80
20174;DHT22;10246;50.620;7.232;2024-02-04T02:52:36;11.00;28.10
20174;DHT22;10246;50.620;7.232;2024-02-04T02:55:03;11.10;27.60
20174;DHT22;10246;50.620;7.232;2024-02-04T02:57:31;11.10;26.20
20174;DHT22;10246;50.620;7.232;2024-02-04T02:59:59;11.20;26.30
20174;DHT22;10246;50.620;7.232;2024-02-04T03:02:26;11.20;26.30
20174;DHT22;10246;50.620;7.232;2024-02-04T03:04:52;11.20;25.90
20174;DHT22;10246;50.620;7.232;2024-02-04T03:07:19;11.20;25.30
20174;DHT22;10246;50.620;7.232;2024-02-04T03:09:46;11.20;24.80
20174;DHT22;10246;50.620;7.232;2024-02-04T03:12:13;11.20;25.00
20174;DHT22;10246;50.620;7.232;2024-02-04T03:14:39;11.10;25.00
20174;DHT22;10246;50.620;7.232;2024-02-04T03:17:07;11.20;24.90
20174;DHT22;10246;50.620;7.232;2024-02-04T03:19:34;11.20;24.90
20174;DHT22;10246;50.620;7.232;2024-02-04T03:22:01;11.20;24.90
20174;DHT22;10246;50.620;7.232;2024-02-04T03:24:27;11.20;24.30
20174;DHT22;10246;50.620;7.232;2024-02-04T03:26:54;11.30;24.10
20174;DHT22;10246;50.620;7.232;2024-02-04T03:29:21;11.30;24.20
20174;DHT22;10246;50.620;7.232;2024-02-04T03:31:49;11.30;23.80
20174;DHT22;10246;50.620;7.232;2024-02-04T03:34:17;11.20;24.60
20174;DHT22;10246;50.620;7.232;2024-02-04T03:36:44;11.20;25.50
20174;DHT22;10246;50.620;7.232;2024-02-04T03:39:10;11.20;26.00
20174;DHT22;10246;50.620;7.232;2024-02-04T03:41:37;11.20;24.60
20174;DHT22;10246;50.620;7.232;2024-02-04T03:44:04;11.20;24.80
20174;DHT22;10246;50.620;7.232;2024-02-04T03:46:31;11.30;25.30
20174;DHT22;10246;50.620;7.232;2024-02-04T03:48:57;11.30;25.60
20174;DHT22;10246;50.620;7.232;2024-02-04T03:51:25;11.30;26.00
20174;DHT22;10246;50.620;7.232;2024-02-04T03:53:52;11.20;26.30
20174;DHT22;10246;50.620;7.232;2024-02-04T03:56:19;11.30;26.30
20174;DHT22;10246;50.620;7.232;2024-02-04T03:58:46;11.20;27.00
20174;DHT22;10246;50.620;7.232;2024-02-04T04:01:13;11.20;27.00
20174;DHT22;10246;50.620;7.232;2024-02-04T04:03:39;11.20;27.30
20174;DHT22;10246;50.620;7.232;2024-02-04T04:06:07;11.20;27.40
20174;DHT22;10246;50.620;7.232;2024-02-04T04:08:35;11.20;27.60
20174;DHT22;10246;50.620;7.232;2024-02-04T04:11:02;11.10;27.90
20174;DHT22;10246;50.620;7.232;2024-02-04T04:13:29;11.20;28.40
20174;DHT22;10246;50.620;7.232;2024-02-04T04:15:57;11.20;28.10
20174;DHT22;10246;50.620;7.232;2024-02-04T04:18:24;11.30;27.10
20174;DHT22;10246;50.620;7.232;2024-02-04T04:20:51;11.30;27.00
20174;DHT22;10246;50.620;7.232;2024-02-04T04:23:17;11.30;27.00
20174;DHT22;10246;50.620;7.232;2024-02-04T04:25:45;11.20;27.80
20174;DHT22;10246;50.620;7.232;2024-02-04T04:28:12;11.20;28.40
20174;DHT22;10246;50.620;7.232;2024-02-04T04:30:39;11.20;29.10
20174;DHT22;10246;50.620;7.232;2024-02-04T04:33:05;11.10;28.90
20174;DHT22;10246;50.620;7.232;2024-02-04T04:35:33;11.20;29.40
20174;DHT22;10246;50.620;7.232;2024-02-04T04:38:00;11.20;28.60
20174;DHT22;10246;50.620;7.232;2024-02-04T04:40:27;11.20;28.20
20174;DHT22;10246;50.620;7.232;2024-02-04T04:42:55;11.30;27.40
20174;DHT22;10246;50.620;7.232;2024-02-04T04:45:22;11.30;27.40
20174;DHT22;10246;50.620;7.232;2024-02-04T04:47:48;11.30;27.80
20174;DHT22;10246;50.620;7.232;2024-02-04T04:50:15;11.20;28.20
20174;DHT22;10246;50.620;7.232;2024-02-04T04:52:42;11.20;28.80
20174;DHT22;10246;50.620;7.232;2024-02-04T04:55:09;11.20;29.10
20174;DHT22;10246;50.620;7.232;2024-02-04T04:57:35;11.20;28.90
20174;DHT22;10246;50.620;7.232;2024-02-04T05:00:05;11.20;29.30
20174;DHT22;10246;50.620;7.232;2024-02-04T05:02:35;11.30;28.90
20174;DHT22;10246;50.620;7.232;2024-02-04T05:05:02;11.20;28.90
20174;DHT22;10246;50.620;7.232;2024-02-04T05:07:29;11.20;28.90
20174;DHT22;10246;50.620;7.232;2024-02-04T05:09:55;11.20;29.40
20174;DHT22;10246;50.620;7.232;2024-02-04T05:12:22;11.20;30.00
20174;DHT22;10246;50.620;7.232;2024-02-04T05:14:49;11.20;29.90
20174;DHT22;10246;50.620;7.232;2024-02-04T05:17:17;11.20;30.00
20174;DHT22;10246;50.620;7.232;2024-02-04T05:19:43;11.10;30.20
20174;DHT22;10246;50.620;7.232;2024-02-04T05:22:10;11.20;30.40
20174;DHT22;10246;50.620;7.232;2024-02-04T05:24:37;11.10;30.40
20174;DHT22;10246;50.620;7.232;2024-02-04T05:27:04;11.10;30.90
20174;DHT22;10246;50.620;7.232;2024-02-04T05:29:31;11.10;31.30
20174;DHT22;10246;50.620;7.232;2024-02-04T05:31:57;11.20;31.00
20174;DHT22;10246;50.620;7.232;2024-02-04T05:34:25;11.20;31.10
20174;DHT22;10246;50.620;7.232;2024-02-04T05:36:52;11.10;31.70
20174;DHT22;10246;50.620;7.232;2024-02-04T05:39:19;11.10;32.30
20174;DHT22;10246;50.620;7.232;2024-02-04T05:41:45;11.10;33.20
20174;DHT22;10246;50.620;7.232;2024-02-04T05:44:12;11.00;32.90
20174;DHT22;10246;50.620;7.232;2024-02-04T05:46:39;11.10;33.40
20174;DHT22;10246;50.620;7.232;2024-02-04T05:49:05;11.00;33.20
20174;DHT22;10246;50.620;7.232;2024-02-04T05:51:38;11.00;33.70
20174;DHT22;10246;50.620;7.232;2024-02-04T05:54:05;11.00;33.70
20174;DHT22;10246;50.620;7.232;2024-02-04T05:56:32;11.00;34.20
20174;DHT22;10246;50.620;7.232;2024-02-04T05:58:59;11.00;34.30
20174;DHT22;10246;50.620;7.232;2024-02-04T06:01:26;11.00;34.50
20174;DHT22;10246;50.620;7.232;2024-02-04T06:03:52;11.00;34.60
20174;DHT22;10246;50.620;7.232;2024-02-04T06:06:19;11.00;34.80
20174;DHT22;10246;50.620;7.232;2024-02-04T06:08:47;11.00;34.40
20174;DHT22;10246;50.620;7.232;2024-02-04T06:11:15;11.00;34.50
20174;DHT22;10246;50.620;7.232;2024-02-04T06:13:42;11.00;34.80
20174;DHT22;10246;50.620;7.232;2024-02-04T06:16:09;11.00;35.00
20174;DHT22;10246;50.620;7.232;2024-02-04T06:18:37;11.00;34.90
20174;DHT22;10246;50.620;7.232;2024-02-04T06:21:04;11.00;34.80
20174;DHT22;10246;50.620;7.232;2024-02-04T06:23:31;11.10;35.20
20174;DHT22;10246;50.620;7.232;2024-02-04T06:26:00;11.10;34.50
20174;DHT22;10246;50.620;7.232;2024-02-04T06:28:27;11.10;34.70
20174;DHT22;10246;50.620;7.232;2024-02-04T06:30:53;11.10;34.70
20174;DHT22;10246;50.620;7.232;2024-02-04T06:33:20;11.10;35.20
20174;DHT22;10246;50.620;7.232;2024-02-04T06:35:48;11.00;34.90
20174;DHT22;10246;50.620;7.232;2024-02-04T06:38:14;11.10;35.20
20174;DHT22;10246;50.620;7.232;2024-02-04T06:40:41;11.10;34.50
20174;DHT22;10246;50.620;7.232;2024-02-04T06:43:09;11.10;35.10
20174;DHT22;10246;50.620;7.232;2024-02-04T06:45:36;11.00;34.70
20174;DHT22;10246;50.620;7.232;2024-02-04T06:48:03;11.10;34.50
20174;DHT22;10246;50.620;7.232;2024-02-04T06:50:30;11.00;34.30
20174;DHT22;10246;50.620;7.232;2024-02-04T06:52:56;11.10;34.50
20174;DHT22;10246;50.620;7.232;2024-02-04T06:55:23;11.00;34.50
20174;DHT22;10246;50.620;7.232;2024-02-04T06:57:50;11.00;34.70
20174;DHT22;10246;50.620;7.232;2024-02-04T07:00:18;11.00;35.10
20174;DHT22;10246;50.620;7.232;2024-02-04T07:02:46;11.00;35.50
20174;DHT22;10246;50.620;7.232;2024-02-04T07:05:13;11.10;35.50
20174;DHT22;10246;50.620;7.232;2024-02-04T07:07:41;11.10;35.60
20174;DHT22;10246;50.620;7.232;2024-02-04T07:10:08;11.10;35.60
20174;DHT22;10246;50.620;7.232;2024-02-04T07:12:35;11.10;35.80
20174;DHT22;10246;50.620;7.232;2024-02-04T07:15:01;11.10;35.50
20174;DHT22;10246;50.620;7.232;2024-02-04T07:17:29;11.10;35.50
20174;DHT22;10246;50.620;7.232;2024-02-04T07:19:56;11.10;34.90
20174;DHT22;10246;50.620;7.232;2024-02-04T07:22:23;11.20;34.10
20174;DHT22;10246;50.620;7.232;2024-02-04T07:24:50;11.20;33.30
20174;DHT22;10246;50.620;7.232;2024-02-04T07:27:16;11.20;32.70
20174;DHT22;10246;50.620;7.232;2024-02-04T07:29:43;11.20;33.20
20174;DHT22;10246;50.620;7.232;2024-02-04T07:32:10;11.10;33.00
20174;DHT22;10246;50.620;7.232;2024-02-04T07:34:38;11.20;32.50
20174;DHT22;10246;50.620;7.232;2024-02-04T07:37:05;11.20;31.60
20174;DHT22;10246;50.620;7.232;2024-02-04T07:39:33;11.20;31.30
20174;DHT22;10246;50.620;7.232;2024-02-04T07:41:59;11.20;31.00
20174;DHT22;10246;50.620;7.232;2024-02-04T07:44:27;11.20;31.30
20174;DHT22;10246;50.620;7.232;2024-02-04T07:46:54;11.20;30.80
20174;DHT22;10246;50.620;7.232;2024-02-04T07:49:21;11.30;29.90
20174;DHT22;10246;50.620;7.232;2024-02-04T07:51:49;11.30;29.20
20174;DHT22;10246;50.620;7.232;2024-02-04T07:54:16;11.30;29.30
20174;DHT22;10246;50.620;7.232;2024-02-04T07:56:42;11.40;28.50
20174;DHT22;10246;50.620;7.232;2024-02-04T07:59:09;11.40;28.40
20174;DHT22;10246;50.620;7.232;2024-02-04T08:01:36;11.40;27.50
20174;DHT22;10246;50.620;7.232;2024-02-04T08:04:03;11.40;29.10
20174;DHT22;10246;50.620;7.232;2024-02-04T08:06:31;11.40;28.40
20174;DHT22;10246;50.620;7.232;2024-02-04T08:09:01;11.40;27.60
20174;DHT22;10246;50.620;7.232;2024-02-04T08:11:27;11.50;27.10
20174;DHT22;10246;50.620;7.232;2024-02-04T08:13:54;11.50;26.50
20174;DHT22;10246;50.620;7.232;2024-02-04T08:16:21;11.50;27.10
20174;DHT22;10246;50.620;7.232;2024-02-04T08:18:48;11.50;27.40
20174;DHT22;10246;50.620;7.232;2024-02-04T08:21:14;11.50;27.80
20174;DHT22;10246;50.620;7.232;2024-02-04T08:23:41;11.50;27.60
20174;DHT22;10246;50.620;7.232;2024-02-04T08:26:11;11.50;28.50
20174;DHT22;10246;50.620;7.232;2024-02-04T08:28:38;11.50;27.20
20174;DHT22;10246;50.620;7.232;2024-02-04T08:31:05;11.60;27.30
20174;DHT22;10246;50.620;7.232;2024-02-04T08:33:32;11.60;27.60
20174;DHT22;10246;50.620;7.232;2024-02-04T08:35:58;11.60;27.40
20174;DHT22;10246;50.620;7.232;2024-02-04T08:38:25;11.60;26.50
20174;DHT22;10246;50.620;7.232;2024-02-04T08:40:52;11.70;26.60
20174;DHT22;10246;50.620;7.232;2024-02-04T08:43:20;11.70;27.20
20174;DHT22;10246;50.620;7.232;2024-02-04T08:45:46;11.70;28.20
20174;DHT22;10246;50.620;7.232;2024-02-04T08:48:13;11.60;28.90
20174;DHT22;10246;50.620;7.232;2024-02-04T08:50:40;11.70;29.60
20174;DHT22;10246;50.620;7.232;2024-02-04T08:53:06;11.70;29.30
20174;DHT22;10246;50.620;7.232;2024-02-04T08:55:33;11.70;30.00
20174;DHT22;10246;50.620;7.232;2024-02-04T08:58:00;11.70;30.40
20174;DHT22;10246;50.620;7.232;2024-02-04T09:00:28;11.70;30.20
20174;DHT22;10246;50.620;7.232;2024-02-04T09:02:55;11.80;29.90
20174;DHT22;10246;50.620;7.232;2024-02-04T09:05:22;11.80;30.10
20174;DHT22;10246;50.620;7.232;2024-02-04T09:07:49;11.90;31.10
20174;DHT22;10246;50.620;7.232;2024-02-04T09:10:15;11.90;29.30
20174;DHT22;10246;50.620;7.232;2024-02-04T09:12:42;11.90;27.50
20174;DHT22;10246;50.620;7.232;2024-02-04T09:15:09;12.00;26.70
20174;DHT22;10246;50.620;7.232;2024-02-04T09:17:37;12.00;25.50
20174;DHT22;10246;50.620;7.232;2024-02-04T09:20:05;12.10;25.10
20174;DHT22;10246;50.620;7.232;2024-02-04T09:22:33;12.10;24.50
20174;DHT22;10246;50.620;7.232;2024-02-04T09:24:59;12.10;22.70
20174;DHT22;10246;50.620;7.232;2024-02-04T09:27:26;12.10;22.50
20174;DHT22;10246;50.620;7.232;2024-02-04T09:29:53;12.20;23.10
20174;DHT22;10246;50.620;7.232;2024-02-04T09:32:21;12.20;22.10
20174;DHT22;10246;50.620;7.232;2024-02-04T09:34:49;12.30;21.90
20174;DHT22;10246;50.620;7.232;2024-02-04T09:37:16;12.30;21.00
20174;DHT22;10246;50.620;7.232;2024-02-04T09:39:42;12.40;20.80
20174;DHT22;10246;50.620;7.232;2024-02-04T09:42:10;12.40;20.40
20174;DHT22;10246;50.620;7.232;2024-02-04T09:44:43;12.40;19.10
20174;DHT22;10246;50.620;7.232;2024-02-04T09:47:11;12.40;18.70
20174;DHT22;10246;50.620;7.232;2024-02-04T09:49:38;12.50;18.70
20174;DHT22;10246;50.620;7.232;2024-02-04T09:52:08;12.50;19.00
20174;DHT22;10246;50.620;7.232;2024-02-04T09:54:38;12.50;18.60
20174;DHT22;10246;50.620;7.232;2024-02-04T09:57:07;12.50;18.60
20174;DHT22;10246;50.620;7.232;2024-02-04T09:59:34;12.50;17.00
20174;DHT22;10246;50.620;7.232;2024-02-04T10:02:03;12.60;18.00
20174;DHT22;10246;50.620;7.232;2024-02-04T10:04:30;12.70;17.10
20174;DHT22;10246;50.620;7.232;2024-02-04T10:06:57;12.70;15.60
20174;DHT22;10246;50.620;7.232;2024-02-04T10:09:25;12.70;14.40
20174;DHT22;10246;50.620;7.232;2024-02-04T10:11:51;12.70;14.80
20174;DHT22;10246;50.620;7.232;2024-02-04T10:14:18;12.70;15.50
20174;DHT22;10246;50.620;7.232;2024-02-04T10:16:45;12.80;16.60
20174;DHT22;10246;50.620;7.232;2024-02-04T10:19:12;12.80;15.40
20174;DHT22;10246;50.620;7.232;2024-02-04T10:21:39;12.90;15.00
20174;DHT22;10246;50.620;7.232;2024-02-04T10:24:06;12.90;14.90
20174;DHT22;10246;50.620;7.232;2024-02-04T10:26:35;12.80;15.70
20174;DHT22;10246;50.620;7.232;2024-02-04T10:29:03;12.80;16.40
20174;DHT22;10246;50.620;7.232;2024-02-04T10:31:29;12.80;17.40
20174;DHT22;10246;50.620;7.232;2024-02-04T10:33:56;12.80;18.20
20174;DHT22;10246;50.620;7.232;2024-02-04T10:36:24;12.80;18.20
20174;DHT22;10246;50.620;7.232;2024-02-04T10:38:51;12.80;18.20
20174;DHT22;10246;50.620;7.232;2024-02-04T10:41:18;12.90;17.80
20174;DHT22;10246;50.620;7.232;2024-02-04T10:43:47;12.90;18.10
20174;DHT22;10246;50.620;7.232;2024-02-04T10:46:19;13.00;18.10
20174;DHT22;10246;50.620;7.232;2024-02-04T10:48:52;13.00;17.20
20174;DHT22;10246;50.620;7.232;2024-02-04T10:51:24;13.10;17.70
20174;DHT22;10246;50.620;7.232;2024-02-04T10:53:51;13.20;15.10
20174;DHT22;10246;50.620;7.232;2024-02-04T10:56:23;13.20;16.10
20174;DHT22;10246;50.620;7.232;2024-02-04T10:58:53;13.30;15.60
20174;DHT22;10246;50.620;7.232;2024-02-04T11:01:22;13.30;14.70
20174;DHT22;10246;50.620;7.232;2024-02-04T11:03:50;13.30;14.70
20174;DHT22;10246;50.620;7.232;2024-02-04T11:06:19;13.30;14.50
20174;DHT22;10246;50.620;7.232;2024-02-04T11:08:47;13.30;14.30
20174;DHT22;10246;50.620;7.232;2024-02-04T11:11:14;13.40;12.80
20174;DHT22;10246;50.620;7.232;2024-02-04T11:13:43;13.40;12.00
20174;DHT22;10246;50.620;7.232;2024-02-04T11:16:29;13.40;11.20
20174;DHT22;10246;50.620;7.232;2024-02-04T11:19:08;13.40;10.20
20174;DHT22;10246;50.620;7.232;2024-02-04T11:21:50;13.40;11.20
20174;DHT22;10246;50.620;7.232;2024-02-04T11:24:32;13.40;11.20
20174;DHT22;10246;50.620;7.232;2024-02-04T11:27:01;13.40;10.80
20174;DHT22;10246;50.620;7.232;2024-02-04T11:29:28;13.40;10.00
20174;DHT22;10246;50.620;7.232;2024-02-04T11:31:56;13.40;10.70
20174;DHT22;10246;50.620;7.232;2024-02-04T11:34:23;13.50;10.80
20174;DHT22;10246;50.620;7.232;2024-02-04T11:36:50;13.50;8.60
20174;DHT22;10246;50.620;7.232;2024-02-04T11:39:18;13.50;8.10
20174;DHT22;10246;50.620;7.232;2024-02-04T11:41:48;13.50;7.20
20174;DHT22;10246;50.620;7.232;2024-02-04T11:44:20;13.60;7.20
20174;DHT22;10246;50.620;7.232;2024-02-04T11:46:47;13.50;6.40
20174;DHT22;10246;50.620;7.232;2024-02-04T11:49:16;13.50;7.50
20174;DHT22;10246;50.620;7.232;2024-02-04T11:51:45;13.60;5.60
20174;DHT22;10246;50.620;7.232;2024-02-04T11:54:14;13.60;4.80
20174;DHT22;10246;50.620;7.232;2024-02-04T11:56:41;13.60;4.40
20174;DHT22;10246;50.620;7.232;2024-02-04T11:59:08;13.50;5.90
20174;DHT22;10246;50.620;7.232;2024-02-04T12:01:35;13.50;4.50
20174;DHT22;10246;50.620;7.232;2024-02-04T12:04:09;13.50;5.90
20174;DHT22;10246;50.620;7.232;2024-02-04T12:06:38;13.60;5.20
20174;DHT22;10246;50.620;7.232;2024-02-04T12:09:05;13.70;4.90
20174;DHT22;10246;50.620;7.232;2024-02-04T12:11:34;13.70;5.20
20174;DHT22;10246;50.620;7.232;2024-02-04T12:14:01;13.60;5.20
20174;DHT22;10246;50.620;7.232;2024-02-04T12:16:31;13.60;5.00
20174;DHT22;10246;50.620;7.232;2024-02-04T12:18:57;13.60;5.10
20174;DHT22;10246;50.620;7.232;2024-02-04T12:21:25;13.60;5.50
20174;DHT22;10246;50.620;7.232;2024-02-04T12:23:53;13.50;4.80
20174;DHT22;10246;50.620;7.232;2024-02-04T12:26:20;13.60;5.80
20174;DHT22;10246;50.620;7.232;2024-02-04T12:28:48;13.50;4.70
20174;DHT22;10246;50.620;7.232;2024-02-04T12:31:18;13.50;6.00
20174;DHT22;10246;50.620;7.232;2024-02-04T12:33:52;13.50;6.90
20174;DHT22;10246;50.620;7.232;2024-02-04T12:36:19;13.50;4.40
20174;DHT22;10246;50.620;7.232;2024-02-04T12:38:52;13.60;5.20
20174;DHT22;10246;50.620;7.232;2024-02-04T12:41:19;13.60;5.30
20174;DHT22;10246;50.620;7.232;2024-02-04T12:43:50;13.60;5.40
20174;DHT22;10246;50.620;7.232;2024-02-04T12:46:16;13.60;4.90
20174;DHT22;10246;50.620;7.232;2024-02-04T12:48:43;13.70;4.80
20174;DHT22;10246;50.620;7.232;2024-02-04T12:51:10;13.70;4.50
20174;DHT22;10246;50.620;7.232;2024-02-04T12:53:37;13.80;4.50
20174;DHT22;10246;50.620;7.232;2024-02-04T12:56:06;13.90;4.50
20174;DHT22;10246;50.620;7.232;2024-02-04T12:58:42;13.90;4.90
20174;DHT22;10246;50.620;7.232;2024-02-04T13:01:09;13.90;3.30
20174;DHT22;10246;50.620;7.232;2024-02-04T13:03:36;14.00;2.50
20174;DHT22;10246;50.620;7.232;2024-02-04T13:06:03;13.90;3.30
20174;DHT22;10246;50.620;7.232;2024-02-04T13:08:30;13.90;3.20
20174;DHT22;10246;50.620;7.232;2024-02-04T13:10:57;13.90;2.50
20174;DHT22;10246;50.620;7.232;2024-02-04T13:13:25;13.90;3.70
20174;DHT22;10246;50.620;7.232;2024-02-04T13:15:54;13.90;3.10
20174;DHT22;10246;50.620;7.232;2024-02-04T13:18:21;14.00;2.80
20174;DHT22;10246;50.620;7.232;2024-02-04T13:20:48;13.90;3.30
20174;DHT22;10246;50.620;7.232;2024-02-04T13:23:15;13.80;3.30
20174;DHT22;10246;50.620;7.232;2024-02-04T13:25:42;13.80;3.10
20174;DHT22;10246;50.620;7.232;2024-02-04T13:28:09;13.90;3.70
20174;DHT22;10246;50.620;7.232;2024-02-04T13:30:37;13.90;3.50
20174;DHT22;10246;50.620;7.232;2024-02-04T13:33:04;13.90;4.00
20174;DHT22;10246;50.620;7.232;2024-02-04T13:35:31;13.90;4.30
20174;DHT22;10246;50.620;7.232;2024-02-04T13:37:58;13.90;3.30
20174;DHT22;10246;50.620;7.232;2024-02-04T13:40:25;14.00;4.00
20174;DHT22;10246;50.620;7.232;2024-02-04T13:42:52;13.90;2.80
20174;DHT22;10246;50.620;7.232;2024-02-04T13:45:19;13.90;2.90
20174;DHT22;10246;50.620;7.232;2024-02-04T13:47:48;14.00;2.30
20174;DHT22;10246;50.620;7.232;2024-02-04T13:50:15;14.00;2.80
20174;DHT22;10246;50.620;7.232;2024-02-04T13:52:41;14.00;2.80
20174;DHT22;10246;50.620;7.232;2024-02-04T13:55:08;14.00;2.60
20174;DHT22;10246;50.620;7.232;2024-02-04T13:57:35;13.90;2.50
20174;DHT22;10246;50.620;7.232;2024-02-04T14:00:03;13.90;1.90
20174;DHT22;10246;50.620;7.232;2024-02-04T14:02:31;13.90;2.10
20174;DHT22;10246;50.620;7.232;2024-02-04T14:04:59;13.90;2.80
20174;DHT22;10246;50.620;7.232;2024-02-04T14:07:26;13.90;2.50
20174;DHT22;10246;50.620;7.232;2024-02-04T14:09:53;13.80;2.10
20174;DHT22;10246;50.620;7.232;2024-02-04T14:12:20;13.80;2.60
20174;DHT22;10246;50.620;7.232;2024-02-04T14:14:47;13.80;2.40
20174;DHT22;10246;50.620;7.232;2024-02-04T14:17:14;13.80;2.20
20174;DHT22;10246;50.620;7.232;2024-02-04T14:19:40;13.90;2.50
20174;DHT22;10246;50.620;7.232;2024-02-04T14:22:08;13.90;2.60
20174;DHT22;10246;50.620;7.232;2024-02-04T14:24:35;13.90;1.80
20174;DHT22;10246;50.620;7.232;2024-02-04T14:27:02;14.00;1.30
20174;DHT22;10246;50.620;7.232;2024-02-04T14:29:28;13.90;1.10
20174;DHT22;10246;50.620;7.232;2024-02-04T14:31:55;13.90;2.20
20174;DHT22;10246;50.620;7.232;2024-02-04T14:34:23;13.90;2.20
20174;DHT22;10246;50.620;7.232;2024-02-04T14:36:50;13.90;2.30
20174;DHT22;10246;50.620;7.232;2024-02-04T14:39:18;13.90;2.30
20174;DHT22;10246;50.620;7.232;2024-02-04T14:41:45;13.90;1.90
20174;DHT22;10246;50.620;7.232;2024-02-04T14:44:12;14.00;2.00
20174;DHT22;10246;50.620;7.232;2024-02-04T14:46:39;14.00;1.70
20174;DHT22;10246;50.620;7.232;2024-02-04T14:49:06;13.90;1.80
20174;DHT22;10246;50.620;7.232;2024-02-04T14:51:32;13.90;2.60
20174;DHT22;10246;50.620;7.232;2024-02-04T14:54:01;13.90;3.30
20174;DHT22;10246;50.620;7.232;2024-02-04T14:56:29;13.90;2.60
20174;DHT22;10246;50.620;7.232;2024-02-04T14:58:56;14.00;2.90
20174;DHT22;10246;50.620;7.232;2024-02-04T15:01:23;13.90;3.40
20174;DHT22;10246;50.620;7.232;2024-02-04T15:03:49;13.90;2.90
20174;DHT22;10246;50.620;7.232;2024-02-04T15:06:16;13.90;3.00
20174;DHT22;10246;50.620;7.232;2024-02-04T15:08:43;13.80;3.00
20174;DHT22;10246;50.620;7.232;2024-02-04T15:11:10;13.70;3.70
20174;DHT22;10246;50.620;7.232;2024-02-04T15:13:38;13.70;3.50
20174;DHT22;10246;50.620;7.232;2024-02-04T15:16:06;13.60;2.80
20174;DHT22;10246;50.620;7.232;2024-02-04T15:18:34;13.60;3.50
20174;DHT22;10246;50.620;7.232;2024-02-04T15:21:02;13.60;3.50
20174;DHT22;10246;50.620;7.232;2024-02-04T15:23:29;13.60;3.00
20174;DHT22;10246;50.620;7.232;2024-02-04T15:25:57;13.60;3.70
20174;DHT22;10246;50.620;7.232;2024-02-04T15:28:24;13.60;3.30
20174;DHT22;10246;50.620;7.232;2024-02-04T15:30:54;13.60;3.30
20174;DHT22;10246;50.620;7.232;2024-02-04T15:33:21;13.60;3.20
20174;DHT22;10246;50.620;7.232;2024-02-04T15:35:48;13.60;3.50